首页
METAR-TAF:

METAR-TAF

机场 :

萨比哈·格克琴国际机场

伊斯坦布尔S萨比哈·格克琴, 土耳其

纬度: 40-53-55N, 经度: 029-18-33E, 海拔: 95米

当前天气观测

该预报发布于25分钟前的11:50 UTC
风速13节,风向西南
温度 14°C
湿度 67%
气压 1010 hPa
能见度10公里或以上
散云层高于3000英尺
多云层高于8000英尺

METAR: LTFJ 241150Z 22013KT 9999 SCT030 BKN080 14/08 Q1010 NOSIG

时间: 15:15 (12:15 UTC)

预报

该预报发布于1小时和35分钟前的10:40 UTC
预报有效从24日的 12点(UTC)到 25日的 12点(UTC)
风速16节,风向西南,有时为26节阵风
能见度10公里或以上
散云层高于4000英尺
多云层高于8000英尺
成为
从 24日的 13点(UTC)到 24日的 16点(UTC)
风速12节,风向
几率 40% :
短暂存在
从 25日的 09点(UTC)到 25日的 12点(UTC)
风速19节,风向西转西南,有时为29节阵风
多云层高于3000英尺
多云层高于9000英尺
小阵雨

TAF: LTFJ 241040Z 2412/2512 23016G26KT 9999 SCT040 BKN080 BECMG 2413/2416 19012KT PROB40 TEMPO 2509/2512 24019G29KT -SHRA BKN030 BKN090

超过4000个机场的气象观测和天气预报(METAR&TAF报告)。

可查询的气象台以黄色和红色小点在地图上表示。

将鼠标移到小点上方,可查看气象台名称。

然后点击查看天气观测和预报。

如需切换地图:点击带黑十字的绿色按钮放大地图;点击带横线的绿色按钮缩小地图;或者点击绿色箭头查看邻近地区的地图。


METAR-TAF: